createdAt,value
2019-05-09T00:01:39.667Z,0.00
2019-05-09T00:02:39.594Z,0.00
2019-05-09T00:04:33.501Z,0.00
2019-05-09T00:05:33.531Z,0.00
2019-05-09T00:07:25.111Z,0.00
2019-05-09T00:08:25.022Z,0.00
2019-05-09T00:10:17.823Z,0.00
2019-05-09T00:11:17.745Z,0.00
2019-05-09T00:13:09.736Z,0.00
2019-05-09T00:14:09.661Z,0.00
2019-05-09T00:16:03.672Z,0.00
2019-05-09T00:17:03.746Z,0.00
2019-05-09T00:18:55.141Z,0.00
2019-05-09T00:19:55.162Z,0.00
2019-05-09T00:21:47.931Z,0.00
2019-05-09T00:22:47.799Z,0.00
2019-05-09T00:24:39.805Z,0.00
2019-05-09T00:25:39.636Z,0.00
2019-05-09T00:27:33.243Z,0.00
2019-05-09T00:28:33.736Z,0.00
2019-05-09T00:30:24.127Z,0.00
2019-05-09T00:31:24.052Z,0.00
2019-05-09T00:33:16.873Z,0.00
2019-05-09T00:34:16.774Z,0.00
2019-05-09T00:36:09.572Z,0.00
2019-05-09T00:37:09.495Z,0.00
2019-05-09T00:39:04.118Z,0.00
2019-05-09T00:40:04.049Z,0.00
2019-05-09T00:41:53.978Z,0.00
2019-05-09T00:42:53.972Z,0.00
2019-05-09T00:44:45.797Z,0.00
2019-05-09T00:45:45.718Z,0.00
2019-05-09T00:47:37.525Z,0.00
2019-05-09T00:48:37.460Z,0.00
2019-05-09T00:50:30.234Z,0.00
2019-05-09T00:51:30.166Z,0.00
2019-05-09T00:53:23.317Z,0.00
2019-05-09T00:54:24.043Z,0.00
2019-05-09T00:56:15.733Z,0.00
2019-05-09T00:57:15.618Z,0.00
2019-05-09T00:59:07.604Z,0.00
2019-05-09T01:00:07.522Z,0.00
2019-05-09T01:02:00.282Z,0.00
2019-05-09T01:03:00.217Z,0.00
2019-05-09T01:04:53.193Z,0.00
2019-05-09T01:05:54.282Z,0.00
2019-05-09T01:07:45.746Z,0.00
2019-05-09T01:08:45.683Z,0.00
2019-05-09T01:10:38.409Z,0.00
2019-05-09T01:11:38.346Z,0.00
2019-05-09T01:13:31.264Z,0.00
2019-05-09T01:14:31.080Z,0.00
2019-05-09T01:16:24.325Z,0.00
2019-05-09T01:17:24.144Z,0.00
2019-05-09T01:19:16.525Z,0.00
2019-05-09T01:20:16.452Z,0.00
2019-05-09T01:22:09.219Z,0.00
2019-05-09T01:23:09.140Z,0.00
2019-05-09T01:25:04.008Z,0.00
2019-05-09T01:26:03.798Z,0.00
2019-05-09T01:27:54.615Z,0.00
2019-05-09T01:28:54.538Z,0.00
2019-05-09T01:30:47.328Z,0.00
2019-05-09T01:31:47.247Z,0.00
2019-05-09T01:33:40.046Z,0.00
2019-05-09T01:34:39.949Z,0.00
2019-05-09T01:36:33.883Z,0.00
2019-05-09T01:37:34.175Z,0.00
2019-05-09T01:39:25.447Z,0.00
2019-05-09T01:40:25.366Z,0.00
2019-05-09T01:42:17.213Z,0.00
2019-05-09T01:43:17.146Z,0.00
2019-05-09T01:45:09.921Z,0.00
2019-05-09T01:46:09.851Z,0.00
2019-05-09T01:48:03.307Z,0.00
2019-05-09T01:49:03.179Z,0.00
2019-05-09T01:50:55.347Z,0.00
2019-05-09T01:51:55.254Z,0.00
2019-05-09T01:53:48.078Z,0.00
2019-05-09T01:55:48.826Z,0.00
2019-05-09T01:56:48.762Z,0.00
2019-05-09T01:58:43.097Z,0.00
2019-05-09T01:59:41.474Z,0.00
2019-05-09T02:01:34.483Z,0.00
2019-05-09T02:02:34.164Z,0.00
2019-05-09T02:04:26.957Z,0.00
2019-05-09T02:05:26.875Z,0.00
2019-05-09T02:07:19.639Z,0.00
2019-05-09T02:08:19.574Z,0.00
2019-05-09T02:10:13.948Z,0.00
2019-05-09T02:11:13.253Z,0.00
2019-05-09T02:13:05.262Z,0.00
2019-05-09T02:14:05.049Z,0.00
2019-05-09T02:15:57.838Z,0.00
2019-05-09T02:16:57.763Z,0.00
2019-05-09T02:18:50.541Z,0.00
2019-05-09T02:19:50.470Z,0.00
2019-05-09T02:21:43.823Z,0.00
2019-05-09T02:22:43.583Z,0.00
2019-05-09T02:24:35.981Z,0.00
2019-05-09T02:25:35.889Z,0.00
2019-05-09T02:27:28.694Z,0.00
2019-05-09T02:28:28.595Z,0.00
2019-05-09T02:30:25.095Z,0.00
2019-05-09T02:31:24.161Z,0.00
2019-05-09T02:33:14.755Z,0.00
2019-05-09T02:34:15.206Z,0.00
2019-05-09T02:36:09.471Z,0.00
2019-05-09T02:37:09.262Z,0.00
2019-05-09T02:38:59.508Z,0.00
2019-05-09T02:39:59.443Z,0.00
2019-05-09T02:42:04.882Z,0.00
2019-05-09T02:42:52.141Z,0.00
2019-05-09T02:44:44.938Z,0.00
2019-05-09T02:45:49.341Z,0.00
2019-05-09T02:47:38.626Z,0.00
2019-05-09T02:48:38.663Z,0.00
2019-05-09T02:50:30.348Z,0.00
2019-05-09T02:51:30.273Z,0.00
2019-05-09T02:53:23.063Z,0.00
2019-05-09T02:54:22.978Z,0.00
2019-05-09T02:56:18.515Z,0.00
2019-05-09T02:57:18.499Z,0.00
2019-05-09T02:59:09.560Z,0.00
2019-05-09T03:00:08.805Z,0.00
2019-05-09T03:02:01.191Z,4.00
2019-05-09T03:03:01.101Z,4.00
2019-05-09T03:04:53.904Z,4.00
2019-05-09T03:05:53.807Z,4.00
2019-05-09T03:07:48.665Z,4.00
2019-05-09T03:08:49.036Z,8.00
2019-05-09T03:10:39.293Z,12.00
2019-05-09T03:11:39.482Z,12.00
2019-05-09T03:13:31.986Z,12.00
2019-05-09T03:14:31.922Z,12.00
2019-05-09T03:16:24.717Z,20.00
2019-05-09T03:17:24.615Z,20.00
2019-05-09T03:19:19.493Z,24.00
2019-05-09T03:20:18.184Z,28.00
2019-05-09T03:22:10.130Z,32.00
2019-05-09T03:23:10.035Z,32.00
2019-05-09T03:25:03.131Z,36.00
2019-05-09T03:26:02.732Z,40.00
2019-05-09T03:27:58.531Z,40.00
2019-05-09T03:28:58.865Z,44.00
2019-05-09T03:30:50.097Z,48.00
2019-05-09T03:31:50.166Z,48.00
2019-05-09T03:33:41.169Z,56.00
2019-05-09T03:34:40.846Z,60.00
2019-05-09T03:36:33.625Z,68.00
2019-05-09T03:37:33.545Z,76.00
2019-05-09T03:39:27.601Z,80.00
2019-05-09T03:40:27.200Z,80.00
2019-05-09T03:42:23.042Z,84.00
2019-05-09T03:43:18.939Z,92.00
2019-05-09T03:45:11.721Z,104.00
2019-05-09T03:46:11.661Z,104.00
2019-05-09T03:48:04.422Z,104.00
2019-05-09T03:49:04.343Z,108.00
2019-05-09T03:50:57.733Z,120.00
2019-05-09T03:51:58.456Z,128.00
2019-05-09T03:53:49.820Z,144.00
2019-05-09T03:54:49.756Z,156.00
2019-05-09T03:56:42.549Z,176.00
2019-05-09T03:57:42.459Z,188.00
2019-05-09T03:59:35.222Z,196.00
2019-05-09T04:00:37.456Z,204.00
2019-05-09T04:02:28.226Z,208.00
2019-05-09T04:03:27.890Z,212.00
2019-05-09T04:05:20.707Z,212.00
2019-05-09T04:06:20.617Z,220.00
2019-05-09T04:08:13.401Z,260.00
2019-05-09T04:09:13.320Z,284.00
2019-05-09T04:11:08.407Z,340.00
2019-05-09T04:12:07.546Z,368.00
2019-05-09T04:13:58.787Z,460.00
2019-05-09T04:14:58.745Z,516.00
2019-05-09T04:16:51.513Z,604.00
2019-05-09T04:17:51.423Z,632.00
2019-05-09T04:19:44.187Z,720.00
2019-05-09T04:20:44.125Z,788.00
2019-05-09T04:22:38.564Z,968.00
2019-05-09T04:23:37.864Z,1072.00
2019-05-09T04:25:29.632Z,1152.00
2019-05-09T04:26:29.543Z,1140.00
2019-05-09T04:28:22.331Z,1264.00
2019-05-09T04:29:22.243Z,1396.00
2019-05-09T04:31:15.023Z,1560.00
2019-05-09T04:32:14.953Z,1588.00
2019-05-09T04:34:09.725Z,1580.00
2019-05-09T04:35:08.157Z,1584.00
2019-05-09T04:37:00.456Z,1568.00
2019-05-09T04:38:00.378Z,1508.00
2019-05-09T04:39:54.040Z,1364.00
2019-05-09T04:40:53.077Z,1364.00
2019-05-09T04:42:47.431Z,1484.00
2019-05-09T04:43:45.775Z,1504.00
2019-05-09T04:45:41.749Z,1460.00
2019-05-09T04:46:38.467Z,1400.00
2019-05-09T04:48:31.273Z,1308.00
2019-05-09T04:49:39.201Z,1288.00
2019-05-09T04:51:23.997Z,1268.00
2019-05-09T04:52:23.900Z,1260.00
2019-05-09T04:54:17.759Z,1216.00
2019-05-09T04:55:18.221Z,1184.00
2019-05-09T04:57:09.398Z,1176.00
2019-05-09T04:58:09.432Z,1196.00
2019-05-09T05:00:02.113Z,1200.00
2019-05-09T05:01:02.029Z,1204.00
2019-05-09T05:02:54.864Z,1356.00
2019-05-09T05:03:54.784Z,1492.00
2019-05-09T05:05:48.220Z,1760.00
2019-05-09T05:06:47.854Z,1828.00
2019-05-09T05:08:40.237Z,1908.00
2019-05-09T05:09:40.177Z,1884.00
2019-05-09T05:11:32.933Z,1680.00
2019-05-09T05:12:32.881Z,1552.00
2019-05-09T05:14:27.993Z,1468.00
2019-05-09T05:15:27.560Z,1536.00
2019-05-09T05:17:18.356Z,1732.00
2019-05-09T05:18:20.294Z,1604.00
2019-05-09T05:20:11.079Z,1184.00
2019-05-09T05:21:10.999Z,1084.00
2019-05-09T05:23:03.788Z,932.00
2019-05-09T05:24:03.698Z,876.00
2019-05-09T05:25:57.967Z,840.00
2019-05-09T05:26:57.920Z,860.00
2019-05-09T05:28:49.211Z,924.00
2019-05-09T05:29:49.129Z,988.00
2019-05-09T05:31:41.907Z,1192.00
2019-05-09T05:32:41.862Z,1336.00
2019-05-09T05:34:34.632Z,1600.00
2019-05-09T05:35:34.569Z,1704.00
2019-05-09T05:37:28.054Z,1804.00
2019-05-09T05:38:27.612Z,1792.00
2019-05-09T05:40:20.080Z,1740.00
2019-05-09T05:41:19.959Z,1656.00
2019-05-09T05:43:12.742Z,1492.00
2019-05-09T05:44:12.674Z,1444.00
2019-05-09T05:46:07.571Z,1476.00
2019-05-09T05:47:07.578Z,1448.00
2019-05-09T05:48:58.151Z,1548.00
2019-05-09T05:49:58.075Z,1596.00
2019-05-09T05:51:50.837Z,1672.00
2019-05-09T05:52:50.764Z,1708.00
2019-05-09T05:54:43.554Z,1820.00
2019-05-09T05:55:43.475Z,1884.00
2019-05-09T05:57:38.385Z,2060.00
2019-05-09T05:58:38.507Z,2188.00
2019-05-09T06:00:29.012Z,2380.00
2019-05-09T06:01:28.886Z,2416.00
2019-05-09T06:03:21.745Z,2368.00
2019-05-09T06:04:21.652Z,2304.00
2019-05-09T06:06:14.429Z,2128.00
2019-05-09T06:07:14.356Z,2044.00
2019-05-09T06:09:08.257Z,1916.00
2019-05-09T06:10:08.280Z,1872.00
2019-05-09T06:11:59.860Z,1748.00
2019-05-09T06:12:59.804Z,1676.00
2019-05-09T06:14:52.556Z,1524.00
2019-05-09T06:15:52.599Z,1452.00
2019-05-09T06:17:45.402Z,1384.00
2019-05-09T06:18:47.432Z,1396.00
2019-05-09T06:20:38.658Z,1540.00
2019-05-09T06:21:37.890Z,1660.00
2019-05-09T06:23:30.658Z,1888.00
2019-05-09T06:24:30.594Z,1964.00
2019-05-09T06:26:23.383Z,2096.00
2019-05-09T06:27:23.296Z,2140.00
2019-05-09T06:29:17.824Z,2376.00
2019-05-09T06:30:17.540Z,2540.00
2019-05-09T06:32:08.769Z,2876.00
2019-05-09T06:33:09.150Z,3148.00
2019-05-09T06:35:01.529Z,3796.00
2019-05-09T06:36:01.429Z,4052.00
2019-05-09T06:37:54.210Z,4520.00
2019-05-09T06:38:54.141Z,4844.00
2019-05-09T06:40:47.614Z,5444.00
2019-05-09T06:41:48.291Z,5008.00
2019-05-09T06:43:39.684Z,4044.00
2019-05-09T06:44:39.546Z,3520.00
2019-05-09T06:46:32.338Z,2840.00
2019-05-09T06:47:32.287Z,2676.00
2019-05-09T06:49:29.275Z,2508.00
2019-05-09T06:50:27.111Z,2468.00
2019-05-09T06:52:17.748Z,2512.00
2019-05-09T06:53:18.255Z,2580.00
2019-05-09T06:55:10.494Z,2700.00
2019-05-09T06:56:10.498Z,2672.00
2019-05-09T06:58:03.219Z,2548.00
2019-05-09T06:59:03.148Z,2476.00
2019-05-09T07:00:58.282Z,2404.00
2019-05-09T07:01:57.578Z,2392.00
2019-05-09T07:03:48.669Z,2388.00
2019-05-09T07:04:48.580Z,2380.00
2019-05-09T07:06:41.362Z,2436.00
2019-05-09T07:07:41.290Z,2504.00
2019-05-09T07:09:34.050Z,2692.00
2019-05-09T07:10:33.985Z,2896.00
2019-05-09T07:12:27.387Z,2816.00
2019-05-09T07:13:27.590Z,2820.00
2019-05-09T07:15:19.544Z,3672.00
2019-05-09T07:16:19.446Z,3828.00
2019-05-09T07:18:12.216Z,4728.00
2019-05-09T07:19:12.145Z,5532.00
2019-05-09T07:21:04.951Z,6624.00
2019-05-09T07:22:04.850Z,6168.00
2019-05-09T07:23:58.331Z,4588.00
2019-05-09T07:25:05.894Z,3680.00
2019-05-09T07:26:50.371Z,3000.00
2019-05-09T07:27:50.306Z,2784.00
2019-05-09T07:29:43.098Z,2308.00
2019-05-09T07:30:43.026Z,2172.00
2019-05-09T07:32:38.125Z,2424.00
2019-05-09T07:33:38.220Z,2728.00
2019-05-09T07:35:28.514Z,2884.00
2019-05-09T07:36:28.440Z,2760.00
2019-05-09T07:38:21.248Z,2688.00
2019-05-09T07:39:21.153Z,2976.00
2019-05-09T07:41:13.954Z,3628.00
2019-05-09T07:42:13.911Z,3764.00
2019-05-09T07:44:07.637Z,3860.00
2019-05-09T07:45:08.872Z,4320.00
2019-05-09T07:46:59.365Z,4596.00
2019-05-09T07:47:59.285Z,4404.00
2019-05-09T07:49:52.114Z,4208.00
2019-05-09T07:50:52.030Z,4068.00
2019-05-09T07:52:44.810Z,3860.00
2019-05-09T07:53:44.759Z,3908.00
2019-05-09T07:55:38.001Z,4092.00
2019-05-09T07:56:37.908Z,3624.00
2019-05-09T07:58:30.254Z,3388.00
2019-05-09T07:59:30.138Z,3532.00
2019-05-09T08:01:21.927Z,3956.00
2019-05-09T08:02:21.868Z,3976.00
2019-05-09T08:04:14.636Z,3860.00
2019-05-09T08:05:14.605Z,3928.00
2019-05-09T08:07:08.400Z,3836.00
2019-05-09T08:08:07.983Z,3512.00
2019-05-09T08:09:59.134Z,3404.00
2019-05-09T08:10:59.064Z,3668.00
2019-05-09T08:12:50.891Z,4116.00
2019-05-09T08:13:50.819Z,4136.00
2019-05-09T08:15:43.595Z,3928.00
2019-05-09T08:16:43.532Z,3796.00
2019-05-09T08:18:37.516Z,3704.00
2019-05-09T08:19:37.898Z,3876.00
2019-05-09T08:21:28.259Z,4160.00
2019-05-09T08:22:31.928Z,4208.00
2019-05-09T08:24:20.949Z,4228.00
2019-05-09T08:25:20.868Z,4224.00
2019-05-09T08:27:13.687Z,4348.00
2019-05-09T08:28:13.590Z,4384.00
2019-05-09T08:30:07.873Z,5184.00
2019-05-09T08:31:08.335Z,6324.00
2019-05-09T08:32:59.895Z,8700.00
2019-05-09T08:33:59.600Z,7356.00
2019-05-09T08:35:52.830Z,7544.00
2019-05-09T08:36:51.722Z,6312.00
2019-05-09T08:38:44.528Z,6664.00
2019-05-09T08:39:44.439Z,5608.00
2019-05-09T08:41:38.509Z,4488.00
2019-05-09T08:42:37.890Z,4260.00
2019-05-09T08:44:31.246Z,3376.00
2019-05-09T08:45:31.421Z,3032.00
2019-05-09T08:47:22.641Z,2512.00
2019-05-09T08:48:22.597Z,2324.00
2019-05-09T08:50:17.469Z,2316.00
2019-05-09T08:51:17.867Z,2420.00
2019-05-09T08:53:08.505Z,2436.00
2019-05-09T08:54:09.274Z,2292.00
2019-05-09T08:56:00.341Z,2048.00
2019-05-09T08:57:00.281Z,2056.00
2019-05-09T08:58:53.087Z,2128.00
2019-05-09T08:59:53.013Z,2244.00
2019-05-09T09:02:08.363Z,3116.00
2019-05-09T09:02:48.011Z,2932.00
2019-05-09T09:04:38.647Z,2984.00
2019-05-09T09:05:38.472Z,3372.00
2019-05-09T09:07:31.251Z,4580.00
2019-05-09T09:08:31.176Z,4172.00
2019-05-09T09:10:23.921Z,4188.00
2019-05-09T09:11:23.893Z,3908.00
2019-05-09T09:13:17.463Z,5064.00
2019-05-09T09:14:18.495Z,6136.00
2019-05-09T09:16:18.464Z,5532.00
2019-05-09T09:17:09.274Z,5308.00
2019-05-09T09:19:02.061Z,6696.00
2019-05-09T09:20:02.101Z,7656.00
2019-05-09T09:21:59.555Z,6956.00
2019-05-09T09:22:54.797Z,6800.00
2019-05-09T09:24:48.195Z,6172.00
2019-05-09T09:25:48.638Z,5588.00
2019-05-09T09:27:40.230Z,4344.00
2019-05-09T09:28:40.257Z,3920.00
2019-05-09T09:30:32.120Z,3832.00
2019-05-09T09:31:32.045Z,4540.00
2019-05-09T09:33:24.852Z,5428.00
2019-05-09T09:34:27.128Z,5508.00
2019-05-09T09:36:18.054Z,5028.00
2019-05-09T09:37:18.484Z,4772.00
2019-05-09T09:39:10.274Z,5080.00
2019-05-09T09:40:10.211Z,5604.00
2019-05-09T09:42:03.892Z,5416.00
2019-05-09T09:43:03.836Z,5148.00
2019-05-09T09:44:58.558Z,5200.00
2019-05-09T09:46:10.039Z,6324.00
2019-05-09T09:47:49.353Z,6368.00
2019-05-09T09:48:49.300Z,6260.00
2019-05-09T09:50:42.090Z,5928.00
2019-05-09T09:51:42.027Z,5772.00
2019-05-09T09:53:35.049Z,5532.00
2019-05-09T09:54:34.933Z,5356.00
2019-05-09T09:56:28.358Z,4480.00
2019-05-09T09:57:28.885Z,3888.00
2019-05-09T09:59:19.628Z,2896.00
2019-05-09T10:00:19.446Z,2544.00
2019-05-09T10:02:12.162Z,2020.00
2019-05-09T10:03:12.136Z,1856.00
2019-05-09T10:05:04.918Z,1740.00
2019-05-09T10:06:04.818Z,1740.00
2019-05-09T10:07:58.166Z,1780.00
2019-05-09T10:08:58.028Z,1816.00
2019-05-09T10:10:50.372Z,1776.00
2019-05-09T10:11:50.296Z,1636.00
2019-05-09T10:13:43.164Z,1348.00
2019-05-09T10:14:43.065Z,1256.00
2019-05-09T10:16:35.880Z,1180.00
2019-05-09T10:17:35.815Z,1140.00
2019-05-09T10:19:28.709Z,1036.00
2019-05-09T10:20:29.234Z,1004.00
2019-05-09T10:22:24.801Z,1004.00
2019-05-09T10:23:21.764Z,1020.00
2019-05-09T10:25:14.150Z,1116.00
2019-05-09T10:26:14.022Z,1172.00
2019-05-09T10:28:08.731Z,1288.00
2019-05-09T10:29:06.763Z,1380.00
2019-05-09T10:30:59.549Z,1692.00
2019-05-09T10:31:59.499Z,1976.00
2019-05-09T10:33:52.274Z,2632.00
2019-05-09T10:34:52.192Z,2976.00
2019-05-09T10:36:45.002Z,3584.00
2019-05-09T10:37:44.913Z,4048.00
2019-05-09T10:39:38.142Z,4704.00
2019-05-09T10:40:39.983Z,4920.00
2019-05-09T10:42:30.463Z,5184.00
2019-05-09T10:43:38.462Z,5368.00
2019-05-09T10:45:23.177Z,5712.00
2019-05-09T10:46:23.116Z,5976.00
2019-05-09T10:48:15.021Z,6736.00
2019-05-09T10:49:14.926Z,7184.00
2019-05-09T10:51:10.471Z,7976.00
2019-05-09T10:52:08.793Z,8404.00
2019-05-09T10:54:00.485Z,8192.00
2019-05-09T10:55:00.463Z,8120.00
2019-05-09T10:56:53.261Z,7556.00
2019-05-09T10:57:53.612Z,6992.00
2019-05-09T10:59:48.276Z,6232.00
2019-05-09T11:00:48.184Z,6036.00
2019-05-09T11:02:38.837Z,5368.00
2019-05-09T11:03:38.719Z,4968.00
2019-05-09T11:05:31.532Z,4352.00
2019-05-09T11:06:31.434Z,3772.00
2019-05-09T11:08:24.236Z,2576.00
2019-05-09T11:09:24.184Z,2020.00
2019-05-09T11:11:18.313Z,1376.00
2019-05-09T11:12:18.060Z,1224.00
2019-05-09T11:14:09.703Z,1052.00
2019-05-09T11:15:09.634Z,976.00
2019-05-09T11:17:11.010Z,868.00
2019-05-09T11:18:02.399Z,824.00
2019-05-09T11:19:55.214Z,784.00
2019-05-09T11:20:57.928Z,800.00
2019-05-09T11:22:47.903Z,864.00
2019-05-09T11:23:48.790Z,908.00
2019-05-09T11:25:40.660Z,984.00
2019-05-09T11:26:40.659Z,1004.00
2019-05-09T11:28:33.772Z,1156.00
2019-05-09T11:29:33.466Z,1352.00
2019-05-09T11:31:26.237Z,1788.00
2019-05-09T11:32:27.660Z,1992.00
2019-05-09T11:34:19.214Z,2204.00
2019-05-09T11:35:18.873Z,2312.00
2019-05-09T11:37:11.748Z,2644.00
2019-05-09T11:38:11.718Z,2916.00
2019-05-09T11:40:03.559Z,3668.00
2019-05-09T11:41:03.419Z,4236.00
2019-05-09T11:42:56.333Z,5432.00
2019-05-09T11:43:59.088Z,6020.00
2019-05-09T11:45:49.032Z,6844.00
2019-05-09T11:46:49.033Z,7032.00
2019-05-09T11:48:41.804Z,7176.00
2019-05-09T11:49:41.666Z,7140.00
2019-05-09T11:51:34.565Z,6968.00
2019-05-09T11:52:34.477Z,6824.00
2019-05-09T11:54:27.928Z,6748.00
2019-05-09T11:55:35.019Z,6752.00
2019-05-09T11:57:20.250Z,6780.00
2019-05-09T11:58:20.292Z,6592.00
2019-05-09T12:00:13.033Z,6304.00
2019-05-09T12:01:12.906Z,6372.00
2019-05-09T12:03:05.780Z,6452.00
2019-05-09T12:04:07.855Z,6320.00
2019-05-09T12:05:58.506Z,6308.00
2019-05-09T12:06:58.427Z,6356.00
2019-05-09T12:08:50.424Z,6580.00
2019-05-09T12:09:50.405Z,6628.00
2019-05-09T12:11:44.628Z,6836.00
2019-05-09T12:12:43.074Z,6880.00
2019-05-09T12:14:38.099Z,6776.00
2019-05-09T12:15:38.785Z,6664.00
2019-05-09T12:17:40.841Z,6516.00
2019-05-09T12:18:28.709Z,6424.00
2019-05-09T12:20:21.389Z,6264.00
2019-05-09T12:21:21.285Z,6152.00
2019-05-09T12:23:13.026Z,5928.00
2019-05-09T12:24:12.966Z,5868.00
2019-05-09T12:26:08.168Z,5880.00
2019-05-09T12:27:05.668Z,5860.00
2019-05-09T12:28:58.534Z,5796.00
2019-05-09T12:29:58.476Z,5676.00
2019-05-09T12:31:53.159Z,5588.00
2019-05-09T12:32:51.802Z,5788.00
2019-05-09T12:34:44.657Z,5488.00
2019-05-09T12:35:44.512Z,5384.00
2019-05-09T12:37:37.899Z,4960.00
2019-05-09T12:38:38.869Z,5168.00
2019-05-09T12:40:30.202Z,4852.00
2019-05-09T12:41:31.518Z,4608.00
2019-05-09T12:43:22.113Z,3732.00
2019-05-09T12:44:25.020Z,3468.00
2019-05-09T12:46:14.945Z,3520.00
2019-05-09T12:47:14.869Z,3840.00
2019-05-09T12:49:08.935Z,4084.00
2019-05-09T12:50:08.638Z,4100.00
2019-05-09T12:52:00.420Z,3764.00
2019-05-09T12:53:00.325Z,3508.00
2019-05-09T12:54:53.149Z,3448.00
2019-05-09T12:55:53.123Z,3628.00
2019-05-09T12:57:48.680Z,3768.00
2019-05-09T12:58:47.737Z,3752.00
2019-05-09T13:00:38.731Z,3824.00
2019-05-09T13:01:40.645Z,3940.00
2019-05-09T13:03:31.532Z,4420.00
2019-05-09T13:04:31.470Z,4720.00
2019-05-09T13:06:24.454Z,5108.00
2019-05-09T13:07:24.297Z,4960.00
2019-05-09T13:09:17.894Z,4272.00
2019-05-09T13:10:19.419Z,3868.00
2019-05-09T13:12:09.784Z,3432.00
2019-05-09T13:13:09.745Z,3316.00
2019-05-09T13:15:02.574Z,3232.00
2019-05-09T13:16:02.474Z,3304.00
2019-05-09T13:17:55.321Z,3316.00
2019-05-09T13:18:55.182Z,3252.00
2019-05-09T13:20:48.742Z,3392.00
2019-05-09T13:21:47.897Z,3596.00
2019-05-09T13:23:40.845Z,3836.00
2019-05-09T13:24:40.744Z,3908.00
2019-05-09T13:26:33.641Z,4020.00
2019-05-09T13:27:33.553Z,3992.00
2019-05-09T13:29:26.402Z,4012.00
2019-05-09T13:30:28.492Z,4084.00
2019-05-09T13:32:19.049Z,4184.00
2019-05-09T13:33:19.037Z,4260.00
2019-05-09T13:35:11.809Z,4080.00
2019-05-09T13:36:11.751Z,3728.00
2019-05-09T13:38:04.515Z,3024.00
2019-05-09T13:39:05.285Z,2704.00
2019-05-09T13:40:58.412Z,2136.00
2019-05-09T13:41:58.223Z,1876.00
2019-05-09T13:43:57.767Z,1484.00
2019-05-09T13:44:49.961Z,1380.00
2019-05-09T13:46:42.860Z,1336.00
2019-05-09T13:47:42.731Z,1428.00
2019-05-09T13:49:35.552Z,1880.00
2019-05-09T13:50:35.513Z,2196.00
2019-05-09T13:52:28.298Z,2636.00
2019-05-09T13:53:28.470Z,2916.00
2019-05-09T13:55:21.041Z,3300.00
2019-05-09T13:56:21.176Z,3400.00
2019-05-09T13:58:13.806Z,3644.00
2019-05-09T13:59:13.686Z,3796.00
2019-05-09T14:01:07.825Z,4320.00
2019-05-09T14:02:06.403Z,4544.00
2019-05-09T14:03:59.261Z,4860.00
2019-05-09T14:04:59.177Z,4872.00
2019-05-09T14:06:52.070Z,5276.00
2019-05-09T14:07:55.128Z,5172.00
2019-05-09T14:09:43.762Z,4760.00
2019-05-09T14:10:43.707Z,4500.00
2019-05-09T14:12:38.009Z,3988.00
2019-05-09T14:13:38.445Z,3860.00
2019-05-09T14:15:28.317Z,3020.00
2019-05-09T14:16:28.849Z,2908.00
2019-05-09T14:18:21.204Z,3048.00
2019-05-09T14:19:36.105Z,2988.00
2019-05-09T14:21:13.778Z,3088.00
2019-05-09T14:22:13.745Z,3192.00
2019-05-09T14:24:15.072Z,2728.00
2019-05-09T14:25:08.171Z,2664.00
2019-05-09T14:26:59.243Z,2808.00
2019-05-09T14:27:59.241Z,3028.00
2019-05-09T14:29:52.038Z,3392.00
2019-05-09T14:30:51.888Z,3568.00
2019-05-09T14:32:43.888Z,3504.00
2019-05-09T14:33:43.769Z,2968.00
2019-05-09T14:35:38.722Z,3012.00
2019-05-09T14:36:39.219Z,3340.00
2019-05-09T14:38:29.401Z,3236.00
2019-05-09T14:39:29.330Z,3212.00
2019-05-09T14:41:22.248Z,3384.00
2019-05-09T14:42:22.065Z,3388.00
2019-05-09T14:44:14.874Z,3304.00
2019-05-09T14:45:14.811Z,3240.00
2019-05-09T14:47:08.193Z,3088.00
2019-05-09T14:48:08.080Z,2988.00
2019-05-09T14:50:00.485Z,2796.00
2019-05-09T14:51:00.465Z,2768.00
2019-05-09T14:52:53.342Z,2788.00
2019-05-09T14:53:53.236Z,2872.00
2019-05-09T14:55:47.393Z,3144.00
2019-05-09T14:56:45.003Z,3216.00
2019-05-09T14:58:38.801Z,3320.00
2019-05-09T14:59:38.438Z,3200.00
2019-05-09T15:01:30.622Z,2908.00
2019-05-09T15:02:30.519Z,2976.00
2019-05-09T15:04:23.346Z,3860.00
2019-05-09T15:05:23.306Z,3884.00
2019-05-09T15:07:18.641Z,2968.00
2019-05-09T15:08:18.119Z,3300.00
2019-05-09T15:10:08.819Z,2800.00
2019-05-09T15:11:09.864Z,2484.00
2019-05-09T15:13:00.809Z,3128.00
2019-05-09T15:14:01.240Z,3144.00
2019-05-09T15:15:53.662Z,3076.00
2019-05-09T15:16:53.513Z,2892.00
2019-05-09T15:18:48.622Z,3004.00
2019-05-09T15:19:57.350Z,3356.00
2019-05-09T15:21:40.302Z,3544.00
2019-05-09T15:22:40.106Z,3488.00
2019-05-09T15:24:33.230Z,3328.00
2019-05-09T15:25:33.183Z,3212.00
2019-05-09T15:27:27.722Z,2852.00
2019-05-09T15:28:25.856Z,2700.00
2019-05-09T15:30:18.947Z,2048.00
2019-05-09T15:31:18.763Z,2116.00
2019-05-09T15:33:11.505Z,2428.00
2019-05-09T15:34:11.492Z,2600.00
2019-05-09T15:36:04.201Z,2488.00
2019-05-09T15:37:04.127Z,2344.00
2019-05-09T15:38:59.145Z,2152.00
2019-05-09T15:39:57.004Z,2092.00
2019-05-09T15:41:50.364Z,1864.00
2019-05-09T15:42:49.718Z,1788.00
2019-05-09T15:44:42.966Z,1732.00
2019-05-09T15:45:42.538Z,1688.00
2019-05-09T15:47:37.651Z,1660.00
2019-05-09T15:48:35.249Z,1592.00
2019-05-09T15:50:28.143Z,1656.00
2019-05-09T15:51:31.877Z,1688.00
2019-05-09T15:53:20.826Z,1856.00
2019-05-09T15:54:20.753Z,1860.00
2019-05-09T15:56:13.696Z,1792.00
2019-05-09T15:57:13.580Z,1700.00
2019-05-09T15:59:06.466Z,1500.00
2019-05-09T16:00:08.281Z,1388.00
2019-05-09T16:01:59.142Z,1268.00
2019-05-09T16:02:59.282Z,1224.00
2019-05-09T16:04:52.027Z,1156.00
2019-05-09T16:05:51.775Z,1136.00
2019-05-09T16:07:44.575Z,1188.00
2019-05-09T16:08:44.882Z,1284.00
2019-05-09T16:10:37.472Z,1536.00
2019-05-09T16:11:37.786Z,1676.00
2019-05-09T16:13:30.025Z,1840.00
2019-05-09T16:14:29.949Z,1860.00
2019-05-09T16:16:23.047Z,2176.00
2019-05-09T16:17:22.792Z,1952.00
2019-05-09T16:19:15.533Z,1976.00
2019-05-09T16:20:17.928Z,1708.00
2019-05-09T16:22:08.317Z,1976.00
2019-05-09T16:23:08.503Z,2104.00
2019-05-09T16:25:01.066Z,1744.00
2019-05-09T16:26:01.000Z,1748.00
2019-05-09T16:27:53.790Z,1656.00
2019-05-09T16:28:53.673Z,1584.00
2019-05-09T16:30:48.292Z,1488.00
2019-05-09T16:31:48.069Z,1540.00
2019-05-09T16:33:39.236Z,1228.00
2019-05-09T16:34:39.162Z,1184.00
2019-05-09T16:36:32.026Z,1144.00
2019-05-09T16:37:56.346Z,1156.00
2019-05-09T16:39:24.804Z,1184.00
2019-05-09T16:40:24.646Z,1264.00
2019-05-09T16:42:17.452Z,1564.00
2019-05-09T16:43:17.891Z,1776.00
2019-05-09T16:45:10.242Z,1792.00
2019-05-09T16:46:10.145Z,1724.00
2019-05-09T16:48:03.048Z,1344.00
2019-05-09T16:49:05.199Z,1180.00
2019-05-09T16:51:03.213Z,1108.00
2019-05-09T16:51:58.046Z,1124.00
2019-05-09T16:53:49.849Z,1164.00
2019-05-09T16:54:50.138Z,1168.00
2019-05-09T16:56:41.915Z,1128.00
2019-05-09T16:57:41.171Z,1072.00
2019-05-09T16:59:33.972Z,1024.00
2019-05-09T17:00:33.967Z,1036.00
2019-05-09T17:02:28.739Z,1100.00
2019-05-09T17:03:28.412Z,1116.00
2019-05-09T17:05:18.672Z,1164.00
2019-05-09T17:06:18.563Z,1176.00
2019-05-09T17:08:11.374Z,1148.00
2019-05-09T17:09:11.326Z,1152.00
2019-05-09T17:11:07.635Z,1340.00
2019-05-09T17:13:58.512Z,1188.00
2019-05-09T17:14:59.699Z,1176.00
2019-05-09T17:16:52.912Z,1112.00
2019-05-09T17:17:51.179Z,1064.00
2019-05-09T17:19:47.931Z,964.00
2019-05-09T17:20:43.687Z,920.00
2019-05-09T17:22:38.215Z,864.00
2019-05-09T17:23:38.326Z,836.00
2019-05-09T17:25:29.673Z,816.00
2019-05-09T17:26:29.321Z,808.00
2019-05-09T17:28:22.033Z,824.00
2019-05-09T17:29:21.949Z,820.00
2019-05-09T17:31:14.773Z,800.00
2019-05-09T17:32:14.714Z,796.00
2019-05-09T17:34:07.542Z,776.00
2019-05-09T17:35:07.476Z,760.00
2019-05-09T17:37:00.274Z,732.00
2019-05-09T17:38:00.191Z,712.00
2019-05-09T17:39:53.128Z,684.00
2019-05-09T17:40:52.963Z,672.00
2019-05-09T17:42:44.810Z,656.00
2019-05-09T17:43:44.686Z,640.00
2019-05-09T17:45:41.689Z,608.00
2019-05-09T17:46:38.565Z,600.00
2019-05-09T17:48:32.136Z,608.00
2019-05-09T17:49:32.002Z,620.00